sensor_id;sensor_type;location;lat;lon;timestamp;temperature;humidity
14749;DHT22;7466;53.574;9.976;2023-02-28T00:00:46;3.80;1.00
14749;DHT22;7466;53.574;9.976;2023-02-28T00:03:13;3.80;1.00
14749;DHT22;7466;53.574;9.976;2023-02-28T00:05:40;3.80;1.00
14749;DHT22;7466;53.574;9.976;2023-02-28T00:08:08;3.80;1.00
14749;DHT22;7466;53.574;9.976;2023-02-28T00:10:35;3.80;1.00
14749;DHT22;7466;53.574;9.976;2023-02-28T00:13:04;3.70;1.00
14749;DHT22;7466;53.574;9.976;2023-02-28T00:15:32;3.70;1.00
14749;DHT22;7466;53.574;9.976;2023-02-28T00:17:59;3.60;1.00
14749;DHT22;7466;53.574;9.976;2023-02-28T00:20:26;3.60;1.00
14749;DHT22;7466;53.574;9.976;2023-02-28T00:22:54;3.50;1.00
14749;DHT22;7466;53.574;9.976;2023-02-28T00:25:24;3.50;1.00
14749;DHT22;7466;53.574;9.976;2023-02-28T00:27:51;3.40;1.00
14749;DHT22;7466;53.574;9.976;2023-02-28T00:30:20;3.40;1.00
14749;DHT22;7466;53.574;9.976;2023-02-28T00:32:49;3.40;1.00
14749;DHT22;7466;53.574;9.976;2023-02-28T00:35:16;3.40;1.00
14749;DHT22;7466;53.574;9.976;2023-02-28T00:37:43;3.40;1.00
14749;DHT22;7466;53.574;9.976;2023-02-28T00:40:11;3.40;1.00
14749;DHT22;7466;53.574;9.976;2023-02-28T00:42:38;3.40;1.00
14749;DHT22;7466;53.574;9.976;2023-02-28T00:45:06;3.40;1.00
14749;DHT22;7466;53.574;9.976;2023-02-28T00:47:33;3.30;1.00
14749;DHT22;7466;53.574;9.976;2023-02-28T00:50:03;3.30;1.00
14749;DHT22;7466;53.574;9.976;2023-02-28T00:52:30;3.30;1.00
14749;DHT22;7466;53.574;9.976;2023-02-28T00:54:57;3.30;1.00
14749;DHT22;7466;53.574;9.976;2023-02-28T00:57:26;3.30;1.00
14749;DHT22;7466;53.574;9.976;2023-02-28T00:59:52;3.30;1.00
14749;DHT22;7466;53.574;9.976;2023-02-28T01:02:20;3.20;1.00
14749;DHT22;7466;53.574;9.976;2023-02-28T01:04:47;3.20;1.00
14749;DHT22;7466;53.574;9.976;2023-02-28T01:07:16;3.20;1.00
14749;DHT22;7466;53.574;9.976;2023-02-28T01:09:42;3.20;1.00
14749;DHT22;7466;53.574;9.976;2023-02-28T01:12:09;3.30;1.00
14749;DHT22;7466;53.574;9.976;2023-02-28T01:14:36;3.30;1.00
14749;DHT22;7466;53.574;9.976;2023-02-28T01:17:03;3.30;1.00
14749;DHT22;7466;53.574;9.976;2023-02-28T01:19:30;3.20;1.00
14749;DHT22;7466;53.574;9.976;2023-02-28T01:22:00;3.20;1.00
14749;DHT22;7466;53.574;9.976;2023-02-28T01:24:29;3.20;1.00
14749;DHT22;7466;53.574;9.976;2023-02-28T01:26:57;3.20;1.00
14749;DHT22;7466;53.574;9.976;2023-02-28T01:29:24;3.20;1.00
14749;DHT22;7466;53.574;9.976;2023-02-28T01:31:50;3.10;1.00
14749;DHT22;7466;53.574;9.976;2023-02-28T01:34:17;3.10;1.00
14749;DHT22;7466;53.574;9.976;2023-02-28T01:36:46;3.10;1.00
14749;DHT22;7466;53.574;9.976;2023-02-28T01:39:13;3.10;1.00
14749;DHT22;7466;53.574;9.976;2023-02-28T01:41:41;3.10;1.00
14749;DHT22;7466;53.574;9.976;2023-02-28T01:47:09;3.10;1.00
14749;DHT22;7466;53.574;9.976;2023-02-28T01:49:36;3.10;1.00
14749;DHT22;7466;53.574;9.976;2023-02-28T01:52:04;3.10;1.00
14749;DHT22;7466;53.574;9.976;2023-02-28T01:54:32;3.10;1.00
14749;DHT22;7466;53.574;9.976;2023-02-28T01:57:11;3.20;1.00
14749;DHT22;7466;53.574;9.976;2023-02-28T01:59:43;3.20;1.00
14749;DHT22;7466;53.574;9.976;2023-02-28T02:02:13;3.20;1.00
14749;DHT22;7466;53.574;9.976;2023-02-28T02:04:49;3.20;1.00
14749;DHT22;7466;53.574;9.976;2023-02-28T02:07:17;3.10;1.00
14749;DHT22;7466;53.574;9.976;2023-02-28T02:09:44;3.10;1.00
14749;DHT22;7466;53.574;9.976;2023-02-28T02:12:21;3.10;1.00
14749;DHT22;7466;53.574;9.976;2023-02-28T02:15:00;3.10;1.00
14749;DHT22;7466;53.574;9.976;2023-02-28T02:17:34;3.00;1.00
14749;DHT22;7466;53.574;9.976;2023-02-28T02:23:39;3.00;1.00
14749;DHT22;7466;53.574;9.976;2023-02-28T02:26:34;3.00;1.00
14749;DHT22;7466;53.574;9.976;2023-02-28T02:32:38;2.90;1.00
14749;DHT22;7466;53.574;9.976;2023-02-28T02:35:13;2.90;1.00
14749;DHT22;7466;53.574;9.976;2023-02-28T02:37:43;2.90;1.00
14749;DHT22;7466;53.574;9.976;2023-02-28T02:40:16;2.80;1.00
14749;DHT22;7466;53.574;9.976;2023-02-28T02:42:49;2.80;1.00
14749;DHT22;7466;53.574;9.976;2023-02-28T02:45:21;2.80;1.00
14749;DHT22;7466;53.574;9.976;2023-02-28T02:47:50;2.70;1.00
14749;DHT22;7466;53.574;9.976;2023-02-28T02:50:22;2.60;1.00
14749;DHT22;7466;53.574;9.976;2023-02-28T02:52:53;2.60;1.00
14749;DHT22;7466;53.574;9.976;2023-02-28T02:55:23;2.50;1.00
14749;DHT22;7466;53.574;9.976;2023-02-28T02:57:56;2.50;1.00
14749;DHT22;7466;53.574;9.976;2023-02-28T03:00:26;2.40;1.00
14749;DHT22;7466;53.574;9.976;2023-02-28T03:02:56;2.30;1.00
14749;DHT22;7466;53.574;9.976;2023-02-28T03:05:28;2.30;1.00
14749;DHT22;7466;53.574;9.976;2023-02-28T03:07:56;2.20;1.60
14749;DHT22;7466;53.574;9.976;2023-02-28T03:10:30;2.20;8.70
14749;DHT22;7466;53.574;9.976;2023-02-28T03:13:10;2.20;10.80
14749;DHT22;7466;53.574;9.976;2023-02-28T03:15:50;2.20;13.10
14749;DHT22;7466;53.574;9.976;2023-02-28T03:18:26;2.10;16.60
14749;DHT22;7466;53.574;9.976;2023-02-28T03:21:04;2.10;17.90
14749;DHT22;7466;53.574;9.976;2023-02-28T03:23:40;2.00;21.10
14749;DHT22;7466;53.574;9.976;2023-02-28T03:26:16;2.00;23.10
14749;DHT22;7466;53.574;9.976;2023-02-28T03:28:50;2.00;25.90
14749;DHT22;7466;53.574;9.976;2023-02-28T03:31:21;1.90;26.30
14749;DHT22;7466;53.574;9.976;2023-02-28T03:33:57;1.90;28.80
14749;DHT22;7466;53.574;9.976;2023-02-28T03:36:29;1.80;30.10
14749;DHT22;7466;53.574;9.976;2023-02-28T03:38:59;1.70;30.40
14749;DHT22;7466;53.574;9.976;2023-02-28T03:41:34;1.70;33.80
14749;DHT22;7466;53.574;9.976;2023-02-28T03:44:08;1.60;37.20
14749;DHT22;7466;53.574;9.976;2023-02-28T03:46:38;1.60;39.40
14749;DHT22;7466;53.574;9.976;2023-02-28T03:49:13;1.50;44.10
14749;DHT22;7466;53.574;9.976;2023-02-28T03:51:45;1.50;46.40
14749;DHT22;7466;53.574;9.976;2023-02-28T03:54:15;1.50;49.70
14749;DHT22;7466;53.574;9.976;2023-02-28T03:56:50;1.40;53.10
14749;DHT22;7466;53.574;9.976;2023-02-28T03:59:23;1.40;64.00
14749;DHT22;7466;53.574;9.976;2023-02-28T04:01:52;1.40;70.40
14749;DHT22;7466;53.574;9.976;2023-02-28T04:04:21;1.40;73.80
14749;DHT22;7466;53.574;9.976;2023-02-28T04:06:51;1.40;74.70
14749;DHT22;7466;53.574;9.976;2023-02-28T04:09:19;1.30;77.10
14749;DHT22;7466;53.574;9.976;2023-02-28T04:11:48;1.20;77.50
14749;DHT22;7466;53.574;9.976;2023-02-28T04:14:17;1.20;80.20
14749;DHT22;7466;53.574;9.976;2023-02-28T04:16:44;1.10;84.90
14749;DHT22;7466;53.574;9.976;2023-02-28T04:19:12;1.10;90.50
14749;DHT22;7466;53.574;9.976;2023-02-28T04:21:42;1.10;92.70
14749;DHT22;7466;53.574;9.976;2023-02-28T04:24:13;1.00;93.50
14749;DHT22;7466;53.574;9.976;2023-02-28T04:26:41;1.00;94.90
14749;DHT22;7466;53.574;9.976;2023-02-28T04:29:10;1.00;99.90
14749;DHT22;7466;53.574;9.976;2023-02-28T04:31:37;0.90;99.90
14749;DHT22;7466;53.574;9.976;2023-02-28T04:34:04;0.80;99.90
14749;DHT22;7466;53.574;9.976;2023-02-28T04:36:31;0.80;99.90
14749;DHT22;7466;53.574;9.976;2023-02-28T04:38:58;0.80;99.90
14749;DHT22;7466;53.574;9.976;2023-02-28T04:41:26;0.80;99.90
14749;DHT22;7466;53.574;9.976;2023-02-28T04:43:53;0.80;99.90
14749;DHT22;7466;53.574;9.976;2023-02-28T04:46:21;0.70;99.90
14749;DHT22;7466;53.574;9.976;2023-02-28T04:48:48;0.70;99.90
14749;DHT22;7466;53.574;9.976;2023-02-28T04:51:17;0.70;99.90
14749;DHT22;7466;53.574;9.976;2023-02-28T04:53:46;0.60;99.90
14749;DHT22;7466;53.574;9.976;2023-02-28T04:56:15;0.60;99.90
14749;DHT22;7466;53.574;9.976;2023-02-28T04:58:50;0.50;99.90
14749;DHT22;7466;53.574;9.976;2023-02-28T05:01:21;0.40;99.90
14749;DHT22;7466;53.574;9.976;2023-02-28T05:03:49;0.40;99.90
14749;DHT22;7466;53.574;9.976;2023-02-28T05:06:17;0.40;99.90
14749;DHT22;7466;53.574;9.976;2023-02-28T05:08:44;0.30;99.90
14749;DHT22;7466;53.574;9.976;2023-02-28T05:11:17;0.40;99.90
14749;DHT22;7466;53.574;9.976;2023-02-28T05:13:44;0.30;99.90
14749;DHT22;7466;53.574;9.976;2023-02-28T05:16:12;0.30;99.90
14749;DHT22;7466;53.574;9.976;2023-02-28T05:18:39;0.40;99.90
14749;DHT22;7466;53.574;9.976;2023-02-28T05:21:12;0.30;99.90
14749;DHT22;7466;53.574;9.976;2023-02-28T05:23:44;0.30;99.90
14749;DHT22;7466;53.574;9.976;2023-02-28T05:26:11;0.20;99.90
14749;DHT22;7466;53.574;9.976;2023-02-28T05:28:38;0.20;99.90
14749;DHT22;7466;53.574;9.976;2023-02-28T05:31:05;0.30;99.90
14749;DHT22;7466;53.574;9.976;2023-02-28T05:33:34;0.30;99.90
14749;DHT22;7466;53.574;9.976;2023-02-28T05:36:02;0.20;99.90
14749;DHT22;7466;53.574;9.976;2023-02-28T05:38:29;0.20;99.90
14749;DHT22;7466;53.574;9.976;2023-02-28T05:40:56;0.20;99.90
14749;DHT22;7466;53.574;9.976;2023-02-28T05:43:23;0.10;99.90
14749;DHT22;7466;53.574;9.976;2023-02-28T05:45:50;0.00;99.90
14749;DHT22;7466;53.574;9.976;2023-02-28T05:48:16;0.20;99.90
14749;DHT22;7466;53.574;9.976;2023-02-28T05:50:45;0.10;99.90
14749;DHT22;7466;53.574;9.976;2023-02-28T05:53:12;0.00;99.90
14749;DHT22;7466;53.574;9.976;2023-02-28T05:55:39;0.00;99.90
14749;DHT22;7466;53.574;9.976;2023-02-28T05:58:09;0.00;99.90
14749;DHT22;7466;53.574;9.976;2023-02-28T06:00:36;0.00;99.90
14749;DHT22;7466;53.574;9.976;2023-02-28T06:03:03;0.00;99.90
14749;DHT22;7466;53.574;9.976;2023-02-28T06:05:29;0.00;99.90
14749;DHT22;7466;53.574;9.976;2023-02-28T06:07:58;0.00;99.90
14749;DHT22;7466;53.574;9.976;2023-02-28T06:10:24;0.00;99.90
14749;DHT22;7466;53.574;9.976;2023-02-28T06:12:51;0.00;99.90
14749;DHT22;7466;53.574;9.976;2023-02-28T06:15:18;-0.10;99.90
14749;DHT22;7466;53.574;9.976;2023-02-28T06:17:46;-0.10;99.90
14749;DHT22;7466;53.574;9.976;2023-02-28T06:20:13;-0.10;99.90
14749;DHT22;7466;53.574;9.976;2023-02-28T06:22:40;-0.10;99.90
14749;DHT22;7466;53.574;9.976;2023-02-28T06:25:10;-0.10;99.90
14749;DHT22;7466;53.574;9.976;2023-02-28T06:27:37;-0.10;99.90
14749;DHT22;7466;53.574;9.976;2023-02-28T06:30:04;0.00;99.90
14749;DHT22;7466;53.574;9.976;2023-02-28T06:32:32;0.00;99.90
14749;DHT22;7466;53.574;9.976;2023-02-28T06:34:59;0.00;99.90
14749;DHT22;7466;53.574;9.976;2023-02-28T06:37:26;0.00;99.90
14749;DHT22;7466;53.574;9.976;2023-02-28T06:39:54;-0.10;99.90
14749;DHT22;7466;53.574;9.976;2023-02-28T06:42:25;-0.10;99.90
14749;DHT22;7466;53.574;9.976;2023-02-28T06:44:55;0.40;99.90
14749;DHT22;7466;53.574;9.976;2023-02-28T06:47:22;0.40;99.90
14749;DHT22;7466;53.574;9.976;2023-02-28T06:49:50;0.40;99.90
14749;DHT22;7466;53.574;9.976;2023-02-28T06:52:16;0.30;99.90
14749;DHT22;7466;53.574;9.976;2023-02-28T06:54:43;0.40;99.90
14749;DHT22;7466;53.574;9.976;2023-02-28T06:57:10;0.40;99.90
14749;DHT22;7466;53.574;9.976;2023-02-28T06:59:39;0.40;99.90
14749;DHT22;7466;53.574;9.976;2023-02-28T07:02:07;0.40;99.90
14749;DHT22;7466;53.574;9.976;2023-02-28T07:04:34;0.60;99.90
14749;DHT22;7466;53.574;9.976;2023-02-28T07:07:01;0.60;99.90
14749;DHT22;7466;53.574;9.976;2023-02-28T07:09:27;0.70;99.90
14749;DHT22;7466;53.574;9.976;2023-02-28T07:11:55;0.90;99.90
14749;DHT22;7466;53.574;9.976;2023-02-28T07:14:22;0.80;99.90
14749;DHT22;7466;53.574;9.976;2023-02-28T07:16:51;1.00;99.90
14749;DHT22;7466;53.574;9.976;2023-02-28T07:19:18;1.10;99.90
14749;DHT22;7466;53.574;9.976;2023-02-28T07:21:45;1.20;99.90
14749;DHT22;7466;53.574;9.976;2023-02-28T07:24:12;1.20;99.90
14749;DHT22;7466;53.574;9.976;2023-02-28T07:26:41;1.40;99.90
14749;DHT22;7466;53.574;9.976;2023-02-28T07:29:08;1.50;99.90
14749;DHT22;7466;53.574;9.976;2023-02-28T07:31:35;1.50;99.90
14749;DHT22;7466;53.574;9.976;2023-02-28T07:34:03;1.70;99.90
14749;DHT22;7466;53.574;9.976;2023-02-28T07:36:30;1.80;99.90
14749;DHT22;7466;53.574;9.976;2023-02-28T07:38:58;1.80;99.90
14749;DHT22;7466;53.574;9.976;2023-02-28T07:41:25;2.00;99.90
14749;DHT22;7466;53.574;9.976;2023-02-28T07:43:54;1.90;99.90
14749;DHT22;7466;53.574;9.976;2023-02-28T07:46:22;2.00;99.90
14749;DHT22;7466;53.574;9.976;2023-02-28T07:48:49;2.00;99.90
14749;DHT22;7466;53.574;9.976;2023-02-28T07:51:17;2.10;99.90
14749;DHT22;7466;53.574;9.976;2023-02-28T07:53:44;2.20;99.90
14749;DHT22;7466;53.574;9.976;2023-02-28T07:56:11;2.30;99.90
14749;DHT22;7466;53.574;9.976;2023-02-28T07:58:46;2.30;99.90
14749;DHT22;7466;53.574;9.976;2023-02-28T08:01:17;2.40;99.90
14749;DHT22;7466;53.574;9.976;2023-02-28T08:03:44;2.50;99.90
14749;DHT22;7466;53.574;9.976;2023-02-28T08:06:19;2.60;99.90
14749;DHT22;7466;53.574;9.976;2023-02-28T08:08:49;2.60;99.90
14749;DHT22;7466;53.574;9.976;2023-02-28T08:11:18;2.80;99.90
14749;DHT22;7466;53.574;9.976;2023-02-28T08:13:45;2.90;99.90
14749;DHT22;7466;53.574;9.976;2023-02-28T08:16:13;3.10;99.90
14749;DHT22;7466;53.574;9.976;2023-02-28T08:18:43;3.30;99.90
14749;DHT22;7466;53.574;9.976;2023-02-28T08:21:11;3.30;81.50
14749;DHT22;7466;53.574;9.976;2023-02-28T08:23:40;3.40;71.40
14749;DHT22;7466;53.574;9.976;2023-02-28T08:26:07;3.50;74.40
14749;DHT22;7466;53.574;9.976;2023-02-28T08:28:34;3.60;50.80
14749;DHT22;7466;53.574;9.976;2023-02-28T08:31:07;3.70;40.90
14749;DHT22;7466;53.574;9.976;2023-02-28T08:33:34;3.90;36.50
14749;DHT22;7466;53.574;9.976;2023-02-28T08:36:02;4.10;31.50
14749;DHT22;7466;53.574;9.976;2023-02-28T08:38:29;4.10;19.80
14749;DHT22;7466;53.574;9.976;2023-02-28T08:41:02;4.30;3.70
14749;DHT22;7466;53.574;9.976;2023-02-28T08:43:31;4.30;1.00
14749;DHT22;7466;53.574;9.976;2023-02-28T08:45:58;4.40;1.00
14749;DHT22;7466;53.574;9.976;2023-02-28T08:48:27;4.40;1.00
14749;DHT22;7466;53.574;9.976;2023-02-28T08:50:55;4.70;1.00
14749;DHT22;7466;53.574;9.976;2023-02-28T08:53:24;5.20;1.00
14749;DHT22;7466;53.574;9.976;2023-02-28T08:55:57;5.80;1.00
14749;DHT22;7466;53.574;9.976;2023-02-28T08:58:28;6.10;99.90
14749;DHT22;7466;53.574;9.976;2023-02-28T09:00:55;6.30;61.80
14749;DHT22;7466;53.574;9.976;2023-02-28T09:03:23;6.70;99.90
14749;DHT22;7466;53.574;9.976;2023-02-28T09:05:55;6.90;1.00
14749;DHT22;7466;53.574;9.976;2023-02-28T09:08:22;7.00;1.00
14749;DHT22;7466;53.574;9.976;2023-02-28T09:10:59;7.30;1.00
14749;DHT22;7466;53.574;9.976;2023-02-28T09:13:29;7.40;1.00
14749;DHT22;7466;53.574;9.976;2023-02-28T09:16:05;7.70;1.00
14749;DHT22;7466;53.574;9.976;2023-02-28T09:18:35;7.80;1.00
14749;DHT22;7466;53.574;9.976;2023-02-28T09:21:03;8.00;99.90
14749;DHT22;7466;53.574;9.976;2023-02-28T09:23:33;8.50;1.00
14749;DHT22;7466;53.574;9.976;2023-02-28T09:25:59;7.70;99.90
14749;DHT22;7466;53.574;9.976;2023-02-28T09:28:28;8.20;99.90
14749;DHT22;7466;53.574;9.976;2023-02-28T09:30:56;8.50;1.00
14749;DHT22;7466;53.574;9.976;2023-02-28T09:33:25;8.50;1.00
14749;DHT22;7466;53.574;9.976;2023-02-28T09:35:59;8.80;1.00
14749;DHT22;7466;53.574;9.976;2023-02-28T09:38:26;8.70;1.00
14749;DHT22;7466;53.574;9.976;2023-02-28T09:41:01;8.80;99.90
14749;DHT22;7466;53.574;9.976;2023-02-28T09:43:34;8.50;91.80
14749;DHT22;7466;53.574;9.976;2023-02-28T09:46:11;7.60;99.90
14749;DHT22;7466;53.574;9.976;2023-02-28T09:48:47;7.80;1.00
14749;DHT22;7466;53.574;9.976;2023-02-28T09:51:30;7.90;99.90
14749;DHT22;7466;53.574;9.976;2023-02-28T09:54:00;7.40;1.00
14749;DHT22;7466;53.574;9.976;2023-02-28T09:56:31;7.10;99.90
14749;DHT22;7466;53.574;9.976;2023-02-28T09:59:05;7.20;99.90
14749;DHT22;7466;53.574;9.976;2023-02-28T10:01:40;7.30;99.90
14749;DHT22;7466;53.574;9.976;2023-02-28T10:04:19;6.90;1.00
14749;DHT22;7466;53.574;9.976;2023-02-28T10:06:51;6.70;78.90
14749;DHT22;7466;53.574;9.976;2023-02-28T10:09:23;6.70;99.90
14749;DHT22;7466;53.574;9.976;2023-02-28T10:12:00;7.20;1.00
14749;DHT22;7466;53.574;9.976;2023-02-28T10:14:32;7.00;99.90
14749;DHT22;7466;53.574;9.976;2023-02-28T10:17:03;7.00;1.00
14749;DHT22;7466;53.574;9.976;2023-02-28T10:19:34;6.90;99.90
14749;DHT22;7466;53.574;9.976;2023-02-28T10:22:10;7.10;99.90
14749;DHT22;7466;53.574;9.976;2023-02-28T10:24:44;8.00;1.00
14749;DHT22;7466;53.574;9.976;2023-02-28T10:27:14;8.60;1.00
14749;DHT22;7466;53.574;9.976;2023-02-28T10:29:45;8.80;99.90
14749;DHT22;7466;53.574;9.976;2023-02-28T10:32:15;8.40;1.00
14749;DHT22;7466;53.574;9.976;2023-02-28T10:34:43;8.80;99.90
14749;DHT22;7466;53.574;9.976;2023-02-28T10:37:11;8.70;99.90
14749;DHT22;7466;53.574;9.976;2023-02-28T10:39:41;8.10;1.00
14749;DHT22;7466;53.574;9.976;2023-02-28T10:42:27;8.00;1.00
14749;DHT22;7466;53.574;9.976;2023-02-28T10:45:14;7.80;99.90
14749;DHT22;7466;53.574;9.976;2023-02-28T10:47:51;7.40;1.00
14749;DHT22;7466;53.574;9.976;2023-02-28T10:50:34;8.10;99.90
14749;DHT22;7466;53.574;9.976;2023-02-28T10:53:30;8.40;1.00
14749;DHT22;7466;53.574;9.976;2023-02-28T10:56:02;9.20;99.90
14749;DHT22;7466;53.574;9.976;2023-02-28T10:58:49;9.50;1.00
14749;DHT22;7466;53.574;9.976;2023-02-28T11:01:21;9.60;1.00
14749;DHT22;7466;53.574;9.976;2023-02-28T11:03:52;10.20;1.00
14749;DHT22;7466;53.574;9.976;2023-02-28T11:06:21;9.60;99.90
14749;DHT22;7466;53.574;9.976;2023-02-28T11:08:51;10.50;1.00
14749;DHT22;7466;53.574;9.976;2023-02-28T11:11:19;10.60;99.90
14749;DHT22;7466;53.574;9.976;2023-02-28T11:13:52;11.50;1.00
14749;DHT22;7466;53.574;9.976;2023-02-28T11:16:22;11.70;1.00
14749;DHT22;7466;53.574;9.976;2023-02-28T11:19:00;11.60;1.00
14749;DHT22;7466;53.574;9.976;2023-02-28T11:21:32;12.50;1.00
14749;DHT22;7466;53.574;9.976;2023-02-28T11:24:04;12.70;1.00
14749;DHT22;7466;53.574;9.976;2023-02-28T11:26:41;12.20;99.90
14749;DHT22;7466;53.574;9.976;2023-02-28T11:29:17;12.00;99.90
14749;DHT22;7466;53.574;9.976;2023-02-28T11:32:01;11.60;99.90
14749;DHT22;7466;53.574;9.976;2023-02-28T11:34:29;11.20;99.90
14749;DHT22;7466;53.574;9.976;2023-02-28T11:36:59;11.60;7.50
14749;DHT22;7466;53.574;9.976;2023-02-28T11:39:27;11.70;99.90
14749;DHT22;7466;53.574;9.976;2023-02-28T11:42:09;12.20;1.00
14749;DHT22;7466;53.574;9.976;2023-02-28T11:44:56;13.40;1.00
14749;DHT22;7466;53.574;9.976;2023-02-28T11:47:34;12.70;3.80
14749;DHT22;7466;53.574;9.976;2023-02-28T11:50:31;12.50;99.90
14749;DHT22;7466;53.574;9.976;2023-02-28T11:53:12;12.40;82.40
14749;DHT22;7466;53.574;9.976;2023-02-28T11:55:43;12.00;56.60
14749;DHT22;7466;53.574;9.976;2023-02-28T11:58:27;12.70;97.10
14749;DHT22;7466;53.574;9.976;2023-02-28T12:01:06;13.10;99.90
14749;DHT22;7466;53.574;9.976;2023-02-28T12:03:48;13.50;99.90
14749;DHT22;7466;53.574;9.976;2023-02-28T12:06:23;12.40;99.90
14749;DHT22;7466;53.574;9.976;2023-02-28T12:09:05;13.40;1.00
14749;DHT22;7466;53.574;9.976;2023-02-28T12:11:48;12.20;99.90
14749;DHT22;7466;53.574;9.976;2023-02-28T12:14:45;12.10;99.90
14749;DHT22;7466;53.574;9.976;2023-02-28T12:17:26;12.50;99.90
14749;DHT22;7466;53.574;9.976;2023-02-28T12:20:08;12.00;25.20
14749;DHT22;7466;53.574;9.976;2023-02-28T12:22:47;11.90;1.00
14749;DHT22;7466;53.574;9.976;2023-02-28T12:25:50;12.40;1.00
14749;DHT22;7466;53.574;9.976;2023-02-28T12:28:27;12.30;9.30
14749;DHT22;7466;53.574;9.976;2023-02-28T12:30:59;12.20;99.90
14749;DHT22;7466;53.574;9.976;2023-02-28T12:33:32;12.00;85.30
14749;DHT22;7466;53.574;9.976;2023-02-28T12:36:05;12.50;99.90
14749;DHT22;7466;53.574;9.976;2023-02-28T12:38:43;12.90;99.90
14749;DHT22;7466;53.574;9.976;2023-02-28T12:41:16;12.70;99.90
14749;DHT22;7466;53.574;9.976;2023-02-28T12:43:46;12.70;99.90
14749;DHT22;7466;53.574;9.976;2023-02-28T12:46:21;13.00;99.90
14749;DHT22;7466;53.574;9.976;2023-02-28T12:48:54;12.20;99.90
14749;DHT22;7466;53.574;9.976;2023-02-28T12:51:25;12.10;99.90
14749;DHT22;7466;53.574;9.976;2023-02-28T12:53:59;12.00;99.90
14749;DHT22;7466;53.574;9.976;2023-02-28T12:56:35;12.70;99.90
14749;DHT22;7466;53.574;9.976;2023-02-28T12:59:12;13.30;99.90
14749;DHT22;7466;53.574;9.976;2023-02-28T13:02:06;12.60;99.90
14749;DHT22;7466;53.574;9.976;2023-02-28T13:04:52;12.40;99.90
14749;DHT22;7466;53.574;9.976;2023-02-28T13:07:51;11.30;99.90
14749;DHT22;7466;53.574;9.976;2023-02-28T13:10:20;11.20;99.90
14749;DHT22;7466;53.574;9.976;2023-02-28T13:12:48;9.90;99.90
14749;DHT22;7466;53.574;9.976;2023-02-28T13:15:19;10.30;1.00
14749;DHT22;7466;53.574;9.976;2023-02-28T13:17:51;11.70;1.60
14749;DHT22;7466;53.574;9.976;2023-02-28T13:20:20;11.90;99.90
14749;DHT22;7466;53.574;9.976;2023-02-28T13:22:52;11.80;99.90
14749;DHT22;7466;53.574;9.976;2023-02-28T13:25:52;12.30;99.90
14749;DHT22;7466;53.574;9.976;2023-02-28T13:31:32;12.30;99.90
14749;DHT22;7466;53.574;9.976;2023-02-28T13:34:14;12.70;99.90
14749;DHT22;7466;53.574;9.976;2023-02-28T13:36:43;12.00;99.90
14749;DHT22;7466;53.574;9.976;2023-02-28T13:39:46;11.70;99.90
14749;DHT22;7466;53.574;9.976;2023-02-28T13:42:23;12.00;99.90
14749;DHT22;7466;53.574;9.976;2023-02-28T13:45:26;12.00;1.00
14749;DHT22;7466;53.574;9.976;2023-02-28T13:47:55;12.50;1.00
14749;DHT22;7466;53.574;9.976;2023-02-28T13:50:29;12.60;1.00
14749;DHT22;7466;53.574;9.976;2023-02-28T13:55:54;12.30;1.00
14749;DHT22;7466;53.574;9.976;2023-02-28T13:58:41;12.80;1.00
14749;DHT22;7466;53.574;9.976;2023-02-28T14:01:23;13.50;99.90
14749;DHT22;7466;53.574;9.976;2023-02-28T14:04:21;13.40;99.90
14749;DHT22;7466;53.574;9.976;2023-02-28T14:06:56;13.00;99.90
14749;DHT22;7466;53.574;9.976;2023-02-28T14:09:25;12.00;1.00
14749;DHT22;7466;53.574;9.976;2023-02-28T14:11:55;13.40;1.00
14749;DHT22;7466;53.574;9.976;2023-02-28T14:14:53;14.20;1.00
14749;DHT22;7466;53.574;9.976;2023-02-28T14:17:20;15.80;99.90
14749;DHT22;7466;53.574;9.976;2023-02-28T14:19:48;15.40;99.90
14749;DHT22;7466;53.574;9.976;2023-02-28T14:22:28;14.80;1.00
14749;DHT22;7466;53.574;9.976;2023-02-28T14:25:13;13.90;99.90
14749;DHT22;7466;53.574;9.976;2023-02-28T14:27:49;12.70;1.00
14749;DHT22;7466;53.574;9.976;2023-02-28T14:33:54;10.30;99.90
14749;DHT22;7466;53.574;9.976;2023-02-28T14:36:31;9.90;99.90
14749;DHT22;7466;53.574;9.976;2023-02-28T14:39:01;9.30;99.90
14749;DHT22;7466;53.574;9.976;2023-02-28T14:41:33;9.30;46.10
14749;DHT22;7466;53.574;9.976;2023-02-28T14:44:14;9.40;1.00
14749;DHT22;7466;53.574;9.976;2023-02-28T14:46:42;9.20;99.90
14749;DHT22;7466;53.574;9.976;2023-02-28T14:49:15;8.80;99.90
14749;DHT22;7466;53.574;9.976;2023-02-28T14:51:43;8.60;1.00
14749;DHT22;7466;53.574;9.976;2023-02-28T14:54:15;8.30;57.90
14749;DHT22;7466;53.574;9.976;2023-02-28T14:56:43;8.30;1.00
14749;DHT22;7466;53.574;9.976;2023-02-28T14:59:29;8.30;99.90
14749;DHT22;7466;53.574;9.976;2023-02-28T15:02:20;8.10;1.00
14749;DHT22;7466;53.574;9.976;2023-02-28T15:04:55;8.10;1.00
14749;DHT22;7466;53.574;9.976;2023-02-28T15:07:23;7.90;1.00
14749;DHT22;7466;53.574;9.976;2023-02-28T15:10:08;8.10;1.00
14749;DHT22;7466;53.574;9.976;2023-02-28T15:12:36;7.90;20.40
14749;DHT22;7466;53.574;9.976;2023-02-28T15:15:06;8.00;1.00
14749;DHT22;7466;53.574;9.976;2023-02-28T15:17:35;7.90;1.00
14749;DHT22;7466;53.574;9.976;2023-02-28T15:20:03;7.90;1.00
14749;DHT22;7466;53.574;9.976;2023-02-28T15:22:34;7.70;99.90
14749;DHT22;7466;53.574;9.976;2023-02-28T15:25:02;7.70;99.90
14749;DHT22;7466;53.574;9.976;2023-02-28T15:27:32;7.50;99.90
14749;DHT22;7466;53.574;9.976;2023-02-28T15:30:04;7.60;99.90
14749;DHT22;7466;53.574;9.976;2023-02-28T15:32:35;7.60;99.90
14749;DHT22;7466;53.574;9.976;2023-02-28T15:35:19;7.50;99.90
14749;DHT22;7466;53.574;9.976;2023-02-28T15:37:48;7.40;99.90
14749;DHT22;7466;53.574;9.976;2023-02-28T15:40:17;7.40;99.90
14749;DHT22;7466;53.574;9.976;2023-02-28T15:43:04;7.50;1.00
14749;DHT22;7466;53.574;9.976;2023-02-28T15:45:37;7.30;1.00
14749;DHT22;7466;53.574;9.976;2023-02-28T15:48:15;7.30;99.90
14749;DHT22;7466;53.574;9.976;2023-02-28T15:50:44;7.20;1.00
14749;DHT22;7466;53.574;9.976;2023-02-28T15:53:16;7.10;99.90
14749;DHT22;7466;53.574;9.976;2023-02-28T15:55:44;7.00;1.00
14749;DHT22;7466;53.574;9.976;2023-02-28T15:58:12;7.00;1.00
14749;DHT22;7466;53.574;9.976;2023-02-28T16:00:40;7.00;1.00
14749;DHT22;7466;53.574;9.976;2023-02-28T16:03:26;7.00;99.90
14749;DHT22;7466;53.574;9.976;2023-02-28T16:09:02;6.90;1.00
14749;DHT22;7466;53.574;9.976;2023-02-28T16:11:30;6.90;1.00
14749;DHT22;7466;53.574;9.976;2023-02-28T16:13:58;6.80;99.90
14749;DHT22;7466;53.574;9.976;2023-02-28T16:16:26;6.70;99.90
14749;DHT22;7466;53.574;9.976;2023-02-28T16:18:54;6.70;1.00
14749;DHT22;7466;53.574;9.976;2023-02-28T16:21:21;6.60;1.00
14749;DHT22;7466;53.574;9.976;2023-02-28T16:23:48;6.50;99.90
14749;DHT22;7466;53.574;9.976;2023-02-28T16:26:21;6.40;1.00
14749;DHT22;7466;53.574;9.976;2023-02-28T16:28:49;6.30;1.00
14749;DHT22;7466;53.574;9.976;2023-02-28T16:31:16;6.30;1.00
14749;DHT22;7466;53.574;9.976;2023-02-28T16:33:44;6.20;1.00
14749;DHT22;7466;53.574;9.976;2023-02-28T16:36:17;6.20;99.90
14749;DHT22;7466;53.574;9.976;2023-02-28T16:38:44;6.00;1.00
14749;DHT22;7466;53.574;9.976;2023-02-28T16:41:18;6.00;99.90
14749;DHT22;7466;53.574;9.976;2023-02-28T16:43:46;6.00;1.00
14749;DHT22;7466;53.574;9.976;2023-02-28T16:46:15;6.00;1.00
14749;DHT22;7466;53.574;9.976;2023-02-28T16:48:43;5.90;1.00
14749;DHT22;7466;53.574;9.976;2023-02-28T16:51:13;5.90;10.70
14749;DHT22;7466;53.574;9.976;2023-02-28T16:53:42;5.80;99.90
14749;DHT22;7466;53.574;9.976;2023-02-28T16:56:16;5.80;99.90